Time;durP1;ratioP1;P1;durP2;ratioP2;P2;SDS_P1;SDS_P2;PMS_P1;PMS_P2;Temp;Humidity;BMP_temperature;BMP_pressure;BME280_temperature;BME280_humidity;BME280_pressure;Samples;Min_cycle;Max_cycle;Signal;HPM_P1;HPM_P2
2023/12/26 00:00:06;;;;;;;2.20;2.00;;;;;;;;;;5035499;28;20215;-63
2023/12/26 00:02:34;;;;;;;1.97;1.70;;;;;;;;;;5036038;28;20206;-64
2023/12/26 00:05:04;;;;;;;1.93;1.70;;;;;;;;;;5034807;28;20752;-64
2023/12/26 00:07:33;;;;;;;1.63;1.50;;;;;;;;;;5037726;28;20226;-62
2023/12/26 00:10:11;;;;;;;4.37;1.83;;;;;;;;;;5045938;28;20241;-64
2023/12/26 00:12:44;;;;;;;4.17;1.77;;;;;;;;;;5066360;28;20210;-64
2023/12/26 00:15:11;;;;;;;2.00;1.80;;;;;;;;;;5052012;28;20258;-65
2023/12/26 00:17:39;;;;;;;1.97;1.77;;;;;;;;;;5039168;28;20228;-63
2023/12/26 00:20:07;;;;;;;2.50;1.90;;;;;;;;;;5037223;28;20223;-65
2023/12/26 00:22:35;;;;;;;2.27;1.83;;;;;;;;;;5041369;28;20198;-66
2023/12/26 00:25:03;;;;;;;2.43;1.60;;;;;;;;;;5039395;28;20253;-65
2023/12/26 00:27:31;;;;;;;2.50;2.00;;;;;;;;;;5041176;28;20236;-63
2023/12/26 00:29:59;;;;;;;1.80;1.70;;;;;;;;;;5042022;28;20289;-64
2023/12/26 00:32:26;;;;;;;2.73;2.00;;;;;;;;;;5035751;28;20211;-65
2023/12/26 00:34:54;;;;;;;2.57;1.93;;;;;;;;;;5039219;28;20238;-65
2023/12/26 00:37:22;;;;;;;2.10;1.90;;;;;;;;;;5037228;28;20255;-65
2023/12/26 00:39:49;;;;;;;2.63;1.70;;;;;;;;;;5036988;28;20206;-65
2023/12/26 00:42:18;;;;;;;4.00;1.80;;;;;;;;;;5038846;28;20202;-65
2023/12/26 00:44:46;;;;;;;2.40;2.00;;;;;;;;;;5041434;28;20215;-63
2023/12/26 00:47:13;;;;;;;2.30;1.80;;;;;;;;;;5035694;28;20691;-65
2023/12/26 00:49:41;;;;;;;1.60;1.50;;;;;;;;;;5035829;28;20202;-65
2023/12/26 00:52:09;;;;;;;2.70;1.90;;;;;;;;;;5034899;28;20613;-66
2023/12/26 00:54:36;;;;;;;2.43;1.63;;;;;;;;;;5039394;28;20202;-66
2023/12/26 00:57:04;;;;;;;2.03;1.90;;;;;;;;;;5037499;28;20257;-66
2023/12/26 00:59:32;;;;;;;2.20;2.00;;;;;;;;;;5038333;28;20206;-66
2023/12/26 01:02:01;;;;;;;2.00;1.70;;;;;;;;;;5036584;28;20533;-66
2023/12/26 01:04:30;;;;;;;1.80;1.70;;;;;;;;;;5036543;28;20305;-65
2023/12/26 01:07:00;;;;;;;1.83;1.47;;;;;;;;;;5044445;28;20232;-63
2023/12/26 01:09:28;;;;;;;2.17;1.90;;;;;;;;;;5073743;28;20236;-65
2023/12/26 01:11:56;;;;;;;2.10;1.90;;;;;;;;;;5043304;28;20268;-63
2023/12/26 01:14:23;;;;;;;1.73;1.63;;;;;;;;;;5043069;28;20202;-64
2023/12/26 01:16:50;;;;;;;3.47;1.80;;;;;;;;;;5026607;28;20222;-64
2023/12/26 01:19:18;;;;;;;1.73;1.63;;;;;;;;;;5046944;28;20631;-63
2023/12/26 01:21:46;;;;;;;2.30;1.90;;;;;;;;;;5041542;28;20269;-66
2023/12/26 01:24:14;;;;;;;1.83;1.73;;;;;;;;;;5040954;28;20216;-65
2023/12/26 01:26:42;;;;;;;1.60;1.50;;;;;;;;;;5038228;28;20342;-63
2023/12/26 01:29:09;;;;;;;1.90;1.80;;;;;;;;;;5038603;28;20225;-63
2023/12/26 01:31:37;;;;;;;2.13;2.03;;;;;;;;;;5035941;28;20230;-64
2023/12/26 01:34:05;;;;;;;2.80;2.60;;;;;;;;;;5039184;28;20680;-65
2023/12/26 01:36:32;;;;;;;2.00;1.80;;;;;;;;;;5034873;28;20219;-65
2023/12/26 01:39:05;;;;;;;1.60;1.50;;;;;;;;;;5040564;28;20222;-64
2023/12/26 01:41:33;;;;;;;3.60;1.93;;;;;;;;;;5037608;28;20230;-65
2023/12/26 01:44:00;;;;;;;1.87;1.77;;;;;;;;;;5037481;28;20287;-64
2023/12/26 01:46:28;;;;;;;3.30;1.60;;;;;;;;;;5044410;28;20688;-65
2023/12/26 01:48:55;;;;;;;1.83;1.73;;;;;;;;;;5041830;28;20241;-63
2023/12/26 01:51:25;;;;;;;1.87;1.63;;;;;;;;;;5037373;28;20201;-67
2023/12/26 01:53:53;;;;;;;2.07;1.70;;;;;;;;;;5043540;28;20197;-62
2023/12/26 01:56:21;;;;;;;1.60;1.50;;;;;;;;;;5039024;28;20311;-64
2023/12/26 01:58:49;;;;;;;2.47;1.77;;;;;;;;;;5038157;28;20663;-64
2023/12/26 02:01:17;;;;;;;2.10;1.90;;;;;;;;;;5040713;28;20655;-65
2023/12/26 02:03:44;;;;;;;3.50;1.80;;;;;;;;;;5033848;28;20613;-66
2023/12/26 02:06:14;;;;;;;2.07;1.87;;;;;;;;;;5040852;28;20225;-64
2023/12/26 02:08:42;;;;;;;1.67;1.57;;;;;;;;;;5037747;28;20258;-66
2023/12/26 02:11:09;;;;;;;3.50;1.80;;;;;;;;;;5044267;28;20643;-65
2023/12/26 02:13:37;;;;;;;3.07;2.00;;;;;;;;;;5039411;28;20560;-66
2023/12/26 02:16:11;;;;;;;2.20;1.80;;;;;;;;;;5041879;28;20360;-65
2023/12/26 02:18:38;;;;;;;3.40;2.60;;;;;;;;;;5043314;28;20221;-64
2023/12/26 02:21:06;;;;;;;6.50;4.00;;;;;;;;;;5040064;28;20877;-66
2023/12/26 02:23:34;;;;;;;3.40;2.07;;;;;;;;;;5039785;28;20347;-64
2023/12/26 02:26:02;;;;;;;1.97;1.77;;;;;;;;;;5040741;28;20730;-64
2023/12/26 02:28:30;;;;;;;2.60;1.50;;;;;;;;;;5043368;28;20235;-66
2023/12/26 02:30:59;;;;;;;2.13;1.93;;;;;;;;;;5038388;28;20202;-63
2023/12/26 02:33:28;;;;;;;1.73;1.63;;;;;;;;;;5044360;28;20204;-63
2023/12/26 02:35:55;;;;;;;4.30;2.10;;;;;;;;;;5039869;28;20222;-63
2023/12/26 02:38:23;;;;;;;2.67;1.90;;;;;;;;;;5037741;28;20206;-65
2023/12/26 02:40:52;;;;;;;1.80;1.70;;;;;;;;;;5040801;28;20213;-66
2023/12/26 02:43:20;;;;;;;2.80;2.10;;;;;;;;;;5040285;28;20221;-65
2023/12/26 02:45:49;;;;;;;1.93;1.83;;;;;;;;;;5036418;28;20218;-65
2023/12/26 02:48:16;;;;;;;2.17;2.00;;;;;;;;;;5040447;28;20325;-65
2023/12/26 02:50:45;;;;;;;3.73;2.00;;;;;;;;;;5036734;28;20644;-66
2023/12/26 02:53:12;;;;;;;2.30;1.80;;;;;;;;;;5041533;28;20207;-65
2023/12/26 02:55:40;;;;;;;1.87;1.60;;;;;;;;;;5034214;28;20638;-64
2023/12/26 02:58:08;;;;;;;2.00;1.80;;;;;;;;;;5041184;28;20217;-65
2023/12/26 03:00:35;;;;;;;2.03;1.90;;;;;;;;;;5044896;28;20298;-64
2023/12/26 03:03:02;;;;;;;2.40;2.20;;;;;;;;;;5037957;28;20203;-66
2023/12/26 03:05:30;;;;;;;1.97;1.80;;;;;;;;;;5036763;28;21203;-64
2023/12/26 03:07:59;;;;;;;1.80;1.70;;;;;;;;;;5034663;28;20231;-65
2023/12/26 03:10:26;;;;;;;2.50;1.90;;;;;;;;;;5042318;28;20225;-66
2023/12/26 03:12:54;;;;;;;2.37;2.17;;;;;;;;;;5039048;28;20256;-63
2023/12/26 03:15:21;;;;;;;1.90;1.70;;;;;;;;;;5042392;28;20719;-65
2023/12/26 03:17:49;;;;;;;2.13;1.67;;;;;;;;;;5040332;28;20234;-65
2023/12/26 03:20:16;;;;;;;2.23;2.00;;;;;;;;;;5038819;28;20206;-65
2023/12/26 03:22:44;;;;;;;3.20;1.80;;;;;;;;;;5038615;28;20209;-65
2023/12/26 03:25:11;;;;;;;2.87;1.87;;;;;;;;;;5039613;28;20214;-64
2023/12/26 03:27:39;;;;;;;3.47;2.00;;;;;;;;;;5037105;28;20232;-65
2023/12/26 03:30:07;;;;;;;1.80;1.70;;;;;;;;;;5035909;28;20284;-65
2023/12/26 03:32:35;;;;;;;2.10;1.97;;;;;;;;;;5032709;28;20252;-65
2023/12/26 03:35:03;;;;;;;3.90;1.87;;;;;;;;;;5037787;28;20401;-65
2023/12/26 03:37:30;;;;;;;3.40;1.90;;;;;;;;;;5043435;28;20695;-66
2023/12/26 03:39:57;;;;;;;2.37;1.63;;;;;;;;;;5041242;28;20211;-65
2023/12/26 03:42:25;;;;;;;3.17;1.90;;;;;;;;;;5036391;28;20593;-65
2023/12/26 03:44:52;;;;;;;2.67;1.90;;;;;;;;;;5040634;28;20210;-64
2023/12/26 03:47:19;;;;;;;1.97;1.80;;;;;;;;;;5042201;28;20226;-65
2023/12/26 03:49:47;;;;;;;1.90;1.80;;;;;;;;;;5038258;28;20226;-65
2023/12/26 03:52:14;;;;;;;2.57;1.70;;;;;;;;;;5039372;28;20210;-64
2023/12/26 03:54:42;;;;;;;3.17;1.77;;;;;;;;;;5038117;28;20199;-66
2023/12/26 03:57:09;;;;;;;4.20;1.80;;;;;;;;;;5041230;28;20229;-63
2023/12/26 03:59:37;;;;;;;4.07;2.00;;;;;;;;;;5039179;28;20214;-64
2023/12/26 04:02:04;;;;;;;3.50;1.77;;;;;;;;;;5045424;28;20240;-67
2023/12/26 04:04:31;;;;;;;2.50;2.13;;;;;;;;;;5065704;28;20207;-64
2023/12/26 04:06:59;;;;;;;3.43;2.10;;;;;;;;;;5060322;28;20225;-65
2023/12/26 04:09:26;;;;;;;2.67;1.67;;;;;;;;;;5041186;28;20219;-64
2023/12/26 04:11:53;;;;;;;1.80;1.70;;;;;;;;;;5040112;28;20198;-63
2023/12/26 04:14:21;;;;;;;2.47;2.00;;;;;;;;;;5034356;28;20229;-67
2023/12/26 04:16:48;;;;;;;2.30;2.10;;;;;;;;;;5033261;28;20226;-65
2023/12/26 04:19:16;;;;;;;2.27;1.77;;;;;;;;;;5037182;28;20696;-65
2023/12/26 04:21:43;;;;;;;2.50;1.70;;;;;;;;;;5035854;28;20218;-65
2023/12/26 04:24:10;;;;;;;1.87;1.77;;;;;;;;;;5035587;28;20816;-64
2023/12/26 04:26:38;;;;;;;1.93;1.80;;;;;;;;;;5037036;28;20232;-63
2023/12/26 04:29:05;;;;;;;1.77;1.67;;;;;;;;;;5041968;28;20238;-64
2023/12/26 04:31:32;;;;;;;3.73;2.17;;;;;;;;;;5037667;28;20209;-65
2023/12/26 04:34:00;;;;;;;6.57;2.80;;;;;;;;;;5039820;28;20333;-66
2023/12/26 04:36:28;;;;;;;2.53;2.30;;;;;;;;;;5033727;28;21925;-64
2023/12/26 04:38:55;;;;;;;2.50;2.20;;;;;;;;;;5035031;28;20790;-65
2023/12/26 04:41:22;;;;;;;3.87;2.60;;;;;;;;;;5033526;28;20711;-66
2023/12/26 04:43:50;;;;;;;5.37;2.80;;;;;;;;;;5032518;28;20229;-66
2023/12/26 04:46:19;;;;;;;1.90;1.80;;;;;;;;;;5034568;28;20227;-64
2023/12/26 04:48:46;;;;;;;3.33;2.30;;;;;;;;;;5030942;28;20234;-64
2023/12/26 04:51:15;;;;;;;2.37;2.10;;;;;;;;;;5035353;28;20699;-64
2023/12/26 04:53:45;;;;;;;3.37;2.00;;;;;;;;;;5037666;28;20225;-66
2023/12/26 04:56:17;;;;;;;2.23;2.03;;;;;;;;;;5036768;28;20257;-66
2023/12/26 04:58:47;;;;;;;2.00;1.90;;;;;;;;;;5037799;28;20264;-66
2023/12/26 05:01:18;;;;;;;6.50;2.10;;;;;;;;;;5030247;28;20210;-66
2023/12/26 05:03:46;;;;;;;2.40;2.20;;;;;;;;;;5035436;28;20829;-64
2023/12/26 05:06:18;;;;;;;5.73;2.20;;;;;;;;;;5034133;28;20226;-65
2023/12/26 05:08:45;;;;;;;5.47;2.23;;;;;;;;;;5039439;28;20309;-62
2023/12/26 05:11:22;;;;;;;3.30;1.90;;;;;;;;;;5039945;28;20219;-65
2023/12/26 05:13:50;;;;;;;3.40;2.20;;;;;;;;;;5029018;28;20293;-65
2023/12/26 05:16:18;;;;;;;2.30;2.10;;;;;;;;;;5036871;28;20226;-65
2023/12/26 05:18:45;;;;;;;3.43;2.17;;;;;;;;;;5031629;28;20264;-65
2023/12/26 05:21:17;;;;;;;3.53;1.90;;;;;;;;;;5034298;28;20633;-66
2023/12/26 05:23:45;;;;;;;1.90;1.80;;;;;;;;;;5036092;28;20258;-64
2023/12/26 05:26:12;;;;;;;3.27;2.20;;;;;;;;;;5034782;28;20700;-63
2023/12/26 05:28:40;;;;;;;2.97;2.20;;;;;;;;;;5034414;28;20218;-65
2023/12/26 05:31:08;;;;;;;2.40;1.87;;;;;;;;;;5032784;28;20210;-66
2023/12/26 05:33:36;;;;;;;2.03;1.83;;;;;;;;;;5032742;28;20217;-65
2023/12/26 05:36:04;;;;;;;2.73;2.13;;;;;;;;;;5030690;28;20226;-64
2023/12/26 05:38:32;;;;;;;2.67;2.33;;;;;;;;;;5034960;28;20219;-65
2023/12/26 05:41:00;;;;;;;2.00;1.83;;;;;;;;;;5036476;28;20320;-65
2023/12/26 05:43:28;;;;;;;4.60;2.10;;;;;;;;;;5035149;28;20202;-64
2023/12/26 05:45:55;;;;;;;2.17;1.90;;;;;;;;;;5030242;28;20300;-64
2023/12/26 05:48:22;;;;;;;4.20;1.90;;;;;;;;;;5031078;28;20210;-63
2023/12/26 05:50:50;;;;;;;5.13;2.30;;;;;;;;;;5031161;28;20253;-65
2023/12/26 05:53:17;;;;;;;2.63;2.00;;;;;;;;;;5031305;28;21604;-64
2023/12/26 05:55:44;;;;;;;3.87;2.10;;;;;;;;;;5037563;28;20259;-65
2023/12/26 05:58:12;;;;;;;2.97;2.10;;;;;;;;;;5027405;28;20206;-64
2023/12/26 06:00:39;;;;;;;3.27;2.30;;;;;;;;;;5028408;28;20210;-65
2023/12/26 06:03:06;;;;;;;4.03;1.93;;;;;;;;;;5032644;28;20213;-65
2023/12/26 06:05:34;;;;;;;4.40;2.20;;;;;;;;;;5030494;28;20206;-64
2023/12/26 06:08:02;;;;;;;2.37;2.07;;;;;;;;;;5034403;28;20220;-63
2023/12/26 06:10:29;;;;;;;2.60;2.20;;;;;;;;;;5036695;28;20321;-66
2023/12/26 06:12:56;;;;;;;3.53;2.30;;;;;;;;;;5031664;28;20206;-65
2023/12/26 06:15:24;;;;;;;2.60;2.40;;;;;;;;;;5031207;28;20222;-63
2023/12/26 06:17:51;;;;;;;2.70;2.23;;;;;;;;;;5030311;28;20226;-65
2023/12/26 06:20:24;;;;;;;4.10;2.30;;;;;;;;;;5025183;28;20214;-66
2023/12/26 06:22:51;;;;;;;3.70;2.07;;;;;;;;;;5025261;28;20206;-63
2023/12/26 06:25:19;;;;;;;7.30;4.20;;;;;;;;;;5029232;28;20271;-64
2023/12/26 06:27:47;;;;;;;11.73;6.53;;;;;;;;;;5035513;28;20234;-65
2023/12/26 06:30:15;;;;;;;8.47;3.80;;;;;;;;;;5031265;28;20280;-62
2023/12/26 06:32:42;;;;;;;7.30;6.53;;;;;;;;;;5030825;28;20194;-66
2023/12/26 06:35:10;;;;;;;5.43;3.00;;;;;;;;;;5034048;28;20210;-63
2023/12/26 06:37:37;;;;;;;3.27;2.10;;;;;;;;;;5032453;28;20226;-65
2023/12/26 06:40:05;;;;;;;4.30;3.10;;;;;;;;;;5040492;28;20202;-64
2023/12/26 06:42:32;;;;;;;4.77;2.40;;;;;;;;;;5050751;28;20687;-66
2023/12/26 06:44:59;;;;;;;2.70;2.03;;;;;;;;;;5033261;28;20282;-65
2023/12/26 06:47:27;;;;;;;2.40;2.20;;;;;;;;;;5031059;28;20319;-65
2023/12/26 06:49:54;;;;;;;2.93;2.30;;;;;;;;;;5034930;28;20234;-64
2023/12/26 06:52:22;;;;;;;5.67;2.40;;;;;;;;;;5035068;28;20267;-66
2023/12/26 06:54:49;;;;;;;3.10;2.00;;;;;;;;;;5031875;28;20202;-65
2023/12/26 06:57:17;;;;;;;3.03;2.40;;;;;;;;;;5038846;28;20718;-65
2023/12/26 06:59:47;;;;;;;3.50;2.10;;;;;;;;;;5050184;28;20187;-65
2023/12/26 07:02:14;;;;;;;3.37;2.00;;;;;;;;;;5069612;28;20268;-64
2023/12/26 07:04:43;;;;;;;4.00;2.23;;;;;;;;;;5037581;28;20253;-65
2023/12/26 07:07:11;;;;;;;2.00;1.90;;;;;;;;;;5018334;28;20282;-64
2023/12/26 07:09:38;;;;;;;4.10;2.00;;;;;;;;;;5036459;28;20684;-63
2023/12/26 07:12:06;;;;;;;3.70;2.30;;;;;;;;;;5031249;28;20213;-65
2023/12/26 07:14:34;;;;;;;2.23;1.90;;;;;;;;;;5036619;28;20869;-64
2023/12/26 07:17:01;;;;;;;2.60;1.83;;;;;;;;;;5033116;28;21481;-65
2023/12/26 07:19:29;;;;;;;4.23;2.07;;;;;;;;;;5034015;28;20207;-66
2023/12/26 07:21:56;;;;;;;3.30;1.90;;;;;;;;;;5026948;28;20217;-65
2023/12/26 07:24:23;;;;;;;2.57;1.77;;;;;;;;;;5030743;28;20214;-65
2023/12/26 07:26:51;;;;;;;3.50;2.13;;;;;;;;;;5032485;28;20645;-66
2023/12/26 07:29:18;;;;;;;2.80;1.80;;;;;;;;;;5033007;28;20313;-64
2023/12/26 07:31:46;;;;;;;4.20;2.10;;;;;;;;;;5033943;28;20200;-63
2023/12/26 07:34:13;;;;;;;2.67;1.83;;;;;;;;;;5028679;28;20202;-64
2023/12/26 07:36:41;;;;;;;2.70;1.83;;;;;;;;;;5047556;28;20685;-65
2023/12/26 07:39:09;;;;;;;1.83;1.70;;;;;;;;;;5039270;28;20214;-65
2023/12/26 07:41:37;;;;;;;3.77;2.00;;;;;;;;;;5036243;28;20206;-63
2023/12/26 07:44:05;;;;;;;2.60;1.90;;;;;;;;;;5036889;28;20202;-63
2023/12/26 07:46:32;;;;;;;2.20;2.00;;;;;;;;;;5035909;28;20221;-66
2023/12/26 07:49:01;;;;;;;4.03;2.00;;;;;;;;;;5037319;28;20238;-65
2023/12/26 07:51:29;;;;;;;4.20;2.20;;;;;;;;;;5036479;28;20584;-67
2023/12/26 07:53:57;;;;;;;3.00;2.57;;;;;;;;;;5037526;28;20206;-66
2023/12/26 07:56:25;;;;;;;4.27;3.07;;;;;;;;;;5038623;28;20214;-66
2023/12/26 07:58:54;;;;;;;4.37;3.33;;;;;;;;;;5042557;28;20207;-64
2023/12/26 08:01:25;;;;;;;2.87;2.10;;;;;;;;;;5037723;28;20207;-66
2023/12/26 08:03:53;;;;;;;3.73;2.73;;;;;;;;;;5038730;28;20206;-65
2023/12/26 08:06:26;;;;;;;2.93;2.63;;;;;;;;;;5034543;28;20287;-66
2023/12/26 08:08:54;;;;;;;5.17;2.70;;;;;;;;;;5032998;28;20206;-63
2023/12/26 08:11:22;;;;;;;4.83;2.00;;;;;;;;;;5031766;28;20655;-65
2023/12/26 08:13:49;;;;;;;4.03;2.40;;;;;;;;;;5035666;28;20218;-64
2023/12/26 08:16:16;;;;;;;3.77;2.20;;;;;;;;;;5029543;28;20305;-66
2023/12/26 08:18:44;;;;;;;3.07;2.30;;;;;;;;;;5035130;28;20209;-65
2023/12/26 08:21:11;;;;;;;3.90;3.00;;;;;;;;;;5037691;28;20275;-66
2023/12/26 08:23:39;;;;;;;5.70;2.90;;;;;;;;;;5035965;28;20660;-66
2023/12/26 08:26:07;;;;;;;3.70;2.43;;;;;;;;;;5035964;28;20322;-65
2023/12/26 08:28:34;;;;;;;4.40;2.73;;;;;;;;;;5031721;28;20559;-67
2023/12/26 08:31:02;;;;;;;4.03;2.20;;;;;;;;;;5025914;28;20246;-67
2023/12/26 08:33:31;;;;;;;2.80;1.93;;;;;;;;;;5030023;28;20232;-65
2023/12/26 08:36:02;;;;;;;3.27;2.50;;;;;;;;;;5027292;28;20222;-66
2023/12/26 08:38:31;;;;;;;3.80;2.00;;;;;;;;;;5035893;28;20768;-66
2023/12/26 08:40:59;;;;;;;2.77;2.47;;;;;;;;;;5031535;28;20231;-66
2023/12/26 08:43:28;;;;;;;3.87;2.87;;;;;;;;;;5030395;28;20214;-67
2023/12/26 08:45:56;;;;;;;4.60;2.20;;;;;;;;;;5031519;28;20226;-64
2023/12/26 08:48:23;;;;;;;5.83;3.40;;;;;;;;;;5031884;28;21003;-65
2023/12/26 08:50:51;;;;;;;6.87;2.50;;;;;;;;;;5025145;28;20230;-66
2023/12/26 08:53:19;;;;;;;3.13;2.80;;;;;;;;;;5023581;28;20297;-67
2023/12/26 08:55:48;;;;;;;3.57;2.20;;;;;;;;;;5027353;28;20206;-68
2023/12/26 08:58:15;;;;;;;3.20;2.47;;;;;;;;;;5030912;28;20352;-67
2023/12/26 09:00:44;;;;;;;5.00;2.80;;;;;;;;;;5028549;28;20213;-64
2023/12/26 09:03:12;;;;;;;2.90;2.40;;;;;;;;;;5033893;28;20275;-66
2023/12/26 09:05:41;;;;;;;4.00;2.30;;;;;;;;;;5032770;28;20297;-65
2023/12/26 09:08:08;;;;;;;3.10;2.53;;;;;;;;;;5033096;28;20215;-66
2023/12/26 09:10:36;;;;;;;6.23;2.20;;;;;;;;;;5032348;28;20213;-64
2023/12/26 09:13:03;;;;;;;3.30;2.10;;;;;;;;;;5030211;28;20202;-65
2023/12/26 09:15:31;;;;;;;4.53;1.90;;;;;;;;;;5029694;28;20214;-63
2023/12/26 09:17:58;;;;;;;4.03;2.40;;;;;;;;;;5023714;28;20330;-67
2023/12/26 09:20:27;;;;;;;4.80;2.10;;;;;;;;;;5034058;28;20668;-65
2023/12/26 09:22:54;;;;;;;4.60;2.43;;;;;;;;;;5027840;28;20210;-64
2023/12/26 09:25:22;;;;;;;7.33;2.70;;;;;;;;;;5020873;28;20655;-64
2023/12/26 09:27:51;;;;;;;5.03;2.80;;;;;;;;;;5028364;28;20310;-66
2023/12/26 09:30:19;;;;;;;5.37;1.90;;;;;;;;;;5035533;28;20223;-66
2023/12/26 09:32:48;;;;;;;2.27;1.93;;;;;;;;;;5026587;28;20606;-69
2023/12/26 09:35:16;;;;;;;12.40;9.50;;;;;;;;;;5030269;28;20210;-66
2023/12/26 09:37:44;;;;;;;7.13;3.03;;;;;;;;;;5023755;28;20223;-69
2023/12/26 09:40:12;;;;;;;6.57;3.70;;;;;;;;;;5035421;28;20209;-69
2023/12/26 09:42:40;;;;;;;5.57;2.60;;;;;;;;;;5037366;28;20283;-66
2023/12/26 09:45:11;;;;;;;4.20;2.43;;;;;;;;;;5032703;28;20222;-66
2023/12/26 09:47:41;;;;;;;3.43;2.13;;;;;;;;;;5030142;28;20230;-67
2023/12/26 09:50:10;;;;;;;4.30;3.27;;;;;;;;;;5030164;28;20237;-66
2023/12/26 09:52:40;;;;;;;7.13;2.80;;;;;;;;;;5038512;28;20289;-69
2023/12/26 09:55:07;;;;;;;3.37;2.33;;;;;;;;;;5062503;28;20299;-68
2023/12/26 09:57:35;;;;;;;2.53;2.27;;;;;;;;;;5047663;28;20225;-66
2023/12/26 10:00:03;;;;;;;4.23;2.30;;;;;;;;;;5034798;28;20218;-67
2023/12/26 10:02:30;;;;;;;5.40;2.40;;;;;;;;;;5029821;28;20202;-67
2023/12/26 10:04:58;;;;;;;10.30;4.57;;;;;;;;;;5033190;28;20203;-65
2023/12/26 10:07:26;;;;;;;3.03;2.13;;;;;;;;;;5031126;28;20602;-68
2023/12/26 10:09:57;;;;;;;6.80;2.47;;;;;;;;;;5036602;28;20613;-65
2023/12/26 10:12:31;;;;;;;3.00;2.60;;;;;;;;;;5038757;28;20215;-65
2023/12/26 10:14:59;;;;;;;5.97;4.43;;;;;;;;;;5026730;28;20643;-66
2023/12/26 10:17:27;;;;;;;4.83;2.43;;;;;;;;;;5031370;28;20226;-66
2023/12/26 10:19:58;;;;;;;4.60;2.20;;;;;;;;;;5031242;28;20213;-63
2023/12/26 10:22:26;;;;;;;3.20;2.00;;;;;;;;;;5050236;28;20225;-65
2023/12/26 10:24:55;;;;;;;4.60;2.07;;;;;;;;;;5027704;28;20198;-64
2023/12/26 10:27:24;;;;;;;3.07;2.10;;;;;;;;;;5032948;28;20307;-64
2023/12/26 10:29:54;;;;;;;5.20;2.10;;;;;;;;;;5035566;28;20229;-66
2023/12/26 10:32:25;;;;;;;4.70;2.03;;;;;;;;;;5030413;28;20648;-65
2023/12/26 10:34:53;;;;;;;3.70;1.80;;;;;;;;;;5031275;28;20202;-65
2023/12/26 10:37:22;;;;;;;3.73;1.73;;;;;;;;;;5033170;28;20226;-66
2023/12/26 10:39:49;;;;;;;1.73;1.63;;;;;;;;;;5028084;28;20289;-65
2023/12/26 10:42:17;;;;;;;4.23;1.70;;;;;;;;;;5030957;28;20214;-64
2023/12/26 10:44:58;;;;;;;4.23;2.10;;;;;;;;;;5033316;28;20534;-62
2023/12/26 10:47:28;;;;;;;4.37;2.10;;;;;;;;;;5028790;28;20223;-66
2023/12/26 10:49:59;;;;;;;3.47;2.30;;;;;;;;;;5028540;28;20234;-66
2023/12/26 10:52:27;;;;;;;2.73;1.60;;;;;;;;;;5028563;28;20214;-63
2023/12/26 10:54:58;;;;;;;2.97;1.73;;;;;;;;;;5031882;28;20198;-65
2023/12/26 10:57:32;;;;;;;3.33;2.10;;;;;;;;;;5034459;28;20249;-64
2023/12/26 13:53:16;;;;;;;1.60;1.13;;;;;;;;;;5041552;28;20267;-64
2023/12/26 13:56:02;;;;;;;0.90;0.90;;;;;;;;;;5036393;28;20213;-62
2023/12/26 13:58:48;;;;;;;1.83;1.10;;;;;;;;;;5033790;28;20210;-64
2023/12/26 14:01:34;;;;;;;0.97;0.97;;;;;;;;;;5033836;28;20212;-64
2023/12/26 14:04:21;;;;;;;6.73;3.80;;;;;;;;;;5028831;28;20664;-64
2023/12/26 14:07:07;;;;;;;29.67;16.23;;;;;;;;;;5032094;28;20226;-64
2023/12/26 14:09:54;;;;;;;27.10;16.17;;;;;;;;;;5034453;28;20209;-64
2023/12/26 14:12:41;;;;;;;5.20;3.20;;;;;;;;;;5026021;28;20648;-64
2023/12/26 14:15:27;;;;;;;10.17;5.67;;;;;;;;;;5035182;28;20216;-63
2023/12/26 14:18:13;;;;;;;8.90;6.47;;;;;;;;;;5036284;28;20241;-63
2023/12/26 14:21:02;;;;;;;3.67;2.80;;;;;;;;;;5035448;28;20256;-62
2023/12/26 14:23:48;;;;;;;2.00;1.80;;;;;;;;;;5036630;28;20234;-65
2023/12/26 14:26:35;;;;;;;4.40;1.47;;;;;;;;;;5035310;28;20286;-65
2023/12/26 14:29:21;;;;;;;1.80;1.40;;;;;;;;;;5033413;28;20211;-66
2023/12/26 14:32:07;;;;;;;1.87;1.20;;;;;;;;;;5034240;28;20358;-65
2023/12/26 14:34:53;;;;;;;2.10;1.10;;;;;;;;;;5035013;28;20207;-65
2023/12/26 14:37:39;;;;;;;1.97;1.40;;;;;;;;;;5035499;28;20232;-64
2023/12/26 14:40:25;;;;;;;1.67;1.57;;;;;;;;;;5039013;28;20198;-66
2023/12/26 14:43:12;;;;;;;2.80;1.60;;;;;;;;;;5031246;28;20206;-65
2023/12/26 14:45:58;;;;;;;2.60;1.70;;;;;;;;;;5032979;28;20215;-65
2023/12/26 14:48:44;;;;;;;1.73;1.40;;;;;;;;;;5033619;28;20213;-63
2023/12/26 14:51:30;;;;;;;1.83;1.50;;;;;;;;;;5036868;28;20325;-65
2023/12/26 14:54:16;;;;;;;2.30;1.60;;;;;;;;;;5030922;28;20669;-65
2023/12/26 14:57:02;;;;;;;2.47;1.70;;;;;;;;;;5035759;28;20295;-67
2023/12/26 14:59:48;;;;;;;8.23;5.50;;;;;;;;;;5038882;28;20243;-64
2023/12/26 15:02:15;;;;;;;6.47;3.10;;;;;;;;;;5037954;28;20272;-66
2023/12/26 15:04:43;;;;;;;6.67;3.80;;;;;;;;;;5034772;28;20229;-62
2023/12/26 15:07:10;;;;;;;2.23;1.90;;;;;;;;;;5029400;28;20261;-66
2023/12/26 15:09:38;;;;;;;2.00;1.90;;;;;;;;;;5035703;28;20260;-64
2023/12/26 15:12:05;;;;;;;2.57;1.43;;;;;;;;;;5031751;28;20361;-64
2023/12/26 15:14:33;;;;;;;2.90;1.80;;;;;;;;;;5030424;28;20239;-65
2023/12/26 15:17:11;;;;;;;2.57;1.50;;;;;;;;;;5030654;28;20738;-63
2023/12/26 15:19:38;;;;;;;2.00;1.80;;;;;;;;;;5040511;28;20210;-65
2023/12/26 15:22:05;;;;;;;2.70;1.60;;;;;;;;;;5036299;28;20210;-64
2023/12/26 15:24:33;;;;;;;1.67;1.20;;;;;;;;;;5029525;28;20225;-65
2023/12/26 15:27:01;;;;;;;3.27;1.40;;;;;;;;;;5030657;28;20274;-66
2023/12/26 15:29:30;;;;;;;2.50;1.40;;;;;;;;;;5033183;28;20210;-62
2023/12/26 15:31:57;;;;;;;2.77;1.43;;;;;;;;;;5035826;28;20214;-64
2023/12/26 15:34:25;;;;;;;1.83;1.20;;;;;;;;;;5035484;28;20288;-65
2023/12/26 15:36:53;;;;;;;1.83;1.60;;;;;;;;;;5033482;28;20320;-65
2023/12/26 15:39:20;;;;;;;1.27;1.20;;;;;;;;;;5030507;28;20682;-65
2023/12/26 15:41:50;;;;;;;1.57;1.20;;;;;;;;;;5031177;28;20211;-63
2023/12/26 15:44:17;;;;;;;2.33;1.63;;;;;;;;;;5035520;28;20673;-65
2023/12/26 15:46:46;;;;;;;4.67;1.67;;;;;;;;;;5034566;28;20288;-64
2023/12/26 15:49:14;;;;;;;2.07;1.47;;;;;;;;;;5033902;28;20217;-65
2023/12/26 15:51:42;;;;;;;11.30;8.07;;;;;;;;;;5035981;28;20598;-65
2023/12/26 15:54:09;;;;;;;11.23;7.67;;;;;;;;;;5032572;28;20214;-64
2023/12/26 15:56:37;;;;;;;21.13;13.43;;;;;;;;;;5031896;28;20228;-64
2023/12/26 15:59:05;;;;;;;5.47;2.67;;;;;;;;;;5037806;28;20214;-64
2023/12/26 16:01:33;;;;;;;5.83;4.83;;;;;;;;;;5038840;28;20214;-65
2023/12/26 16:04:00;;;;;;;4.50;4.10;;;;;;;;;;5031115;28;20238;-63
2023/12/26 16:06:28;;;;;;;3.87;3.47;;;;;;;;;;5037975;28;20241;-63
2023/12/26 16:08:56;;;;;;;1.37;1.27;;;;;;;;;;5036111;28;20297;-65
2023/12/26 16:11:24;;;;;;;3.27;1.53;;;;;;;;;;5040066;28;20218;-66
2023/12/26 16:13:52;;;;;;;3.67;1.30;;;;;;;;;;5033366;28;20257;-64
2023/12/26 16:16:20;;;;;;;2.90;1.50;;;;;;;;;;5039989;28;20226;-66
2023/12/26 16:18:49;;;;;;;1.97;1.33;;;;;;;;;;5037624;28;20707;-63
2023/12/26 16:21:20;;;;;;;1.83;1.73;;;;;;;;;;5058530;28;20195;-65
2023/12/26 16:23:48;;;;;;;2.57;1.50;;;;;;;;;;5042393;28;20285;-65
2023/12/26 16:26:16;;;;;;;2.63;1.40;;;;;;;;;;5039923;28;20233;-65
2023/12/26 16:28:44;;;;;;;1.50;1.40;;;;;;;;;;5035183;28;20211;-64
2023/12/26 16:31:14;;;;;;;1.67;1.20;;;;;;;;;;5027991;28;20296;-65
2023/12/26 16:33:42;;;;;;;3.00;1.40;;;;;;;;;;5052599;28;20220;-65
2023/12/26 16:36:10;;;;;;;2.60;1.50;;;;;;;;;;5045281;28;21210;-65
2023/12/26 16:38:38;;;;;;;4.27;1.80;;;;;;;;;;5032702;28;20198;-65
2023/12/26 16:41:06;;;;;;;8.43;4.73;;;;;;;;;;5039078;28;22094;-65
2023/12/26 16:43:35;;;;;;;8.13;5.03;;;;;;;;;;5039758;28;20203;-64
2023/12/26 16:46:08;;;;;;;2.00;1.60;;;;;;;;;;5044011;28;20231;-64
2023/12/26 16:48:37;;;;;;;3.53;1.80;;;;;;;;;;5030821;28;20559;-67
2023/12/26 16:51:08;;;;;;;2.33;1.70;;;;;;;;;;5034258;28;20230;-63
2023/12/26 16:53:36;;;;;;;2.93;2.30;;;;;;;;;;5037894;28;20209;-65
2023/12/26 16:56:07;;;;;;;2.40;1.50;;;;;;;;;;5034587;28;21687;-65
2023/12/26 16:58:35;;;;;;;1.97;1.60;;;;;;;;;;5040115;28;20208;-64
2023/12/26 17:01:03;;;;;;;2.43;1.60;;;;;;;;;;5034652;28;20206;-66
2023/12/26 17:03:35;;;;;;;5.03;3.00;;;;;;;;;;5029670;28;20238;-65
2023/12/26 17:06:03;;;;;;;3.17;2.50;;;;;;;;;;5027878;28;20221;-65
2023/12/26 17:08:31;;;;;;;3.73;1.40;;;;;;;;;;5025992;28;20340;-65
2023/12/26 17:11:00;;;;;;;1.50;1.40;;;;;;;;;;5034776;28;20260;-64
2023/12/26 17:13:32;;;;;;;1.40;1.30;;;;;;;;;;5037766;28;20207;-64
2023/12/26 17:16:00;;;;;;;13.80;8.00;;;;;;;;;;5030262;28;20446;-64
2023/12/26 17:18:27;;;;;;;15.97;9.03;;;;;;;;;;5039171;28;20256;-64
2023/12/26 17:20:55;;;;;;;25.70;15.33;;;;;;;;;;5038103;28;20213;-64
2023/12/26 17:23:22;;;;;;;13.87;7.07;;;;;;;;;;5033743;28;20274;-64
2023/12/26 17:25:49;;;;;;;33.73;17.57;;;;;;;;;;5032758;28;20215;-65
2023/12/26 17:28:18;;;;;;;17.47;9.80;;;;;;;;;;5036675;28;20229;-64
2023/12/26 17:30:46;;;;;;;10.37;4.87;;;;;;;;;;5027031;28;20212;-65
2023/12/26 17:33:13;;;;;;;15.97;10.80;;;;;;;;;;5021333;28;20254;-65
2023/12/26 17:35:41;;;;;;;5.90;3.20;;;;;;;;;;5022678;28;20206;-66
2023/12/26 17:38:08;;;;;;;4.50;3.17;;;;;;;;;;5022627;28;20227;-64
2023/12/26 17:40:36;;;;;;;5.10;3.50;;;;;;;;;;5027496;28;20301;-64
2023/12/26 17:43:03;;;;;;;2.33;2.13;;;;;;;;;;5027021;28;20300;-64
2023/12/26 17:45:31;;;;;;;3.47;2.73;;;;;;;;;;5028349;28;20314;-64
2023/12/26 17:47:58;;;;;;;2.00;1.90;;;;;;;;;;5025530;28;20245;-64